createdAt,value
2023-05-14T00:03:44.934Z,18.77
2023-05-14T00:08:07.051Z,16.67
2023-05-14T00:12:30.288Z,20.98
2023-05-14T00:16:52.406Z,18.60
2023-05-14T00:21:14.298Z,19.67
2023-05-14T00:25:36.998Z,19.15
2023-05-14T00:29:59.219Z,20.10
2023-05-14T00:34:21.184Z,18.50
2023-05-14T00:38:43.166Z,20.77
2023-05-14T00:43:05.339Z,18.88
2023-05-14T00:47:27.950Z,18.63
2023-05-14T00:51:49.920Z,19.10
2023-05-14T00:56:12.120Z,18.38
2023-05-14T01:00:34.529Z,17.33
2023-05-14T01:04:57.739Z,19.00
2023-05-14T01:09:37.308Z,19.00
2023-05-14T01:14:44.099Z,21.27
2023-05-14T01:19:19.159Z,19.27
2023-05-14T01:23:41.306Z,18.83
2023-05-14T01:28:20.857Z,19.25
2023-05-14T01:32:48.853Z,22.25
2023-05-14T01:37:13.176Z,20.38
2023-05-14T01:41:37.318Z,18.52
2023-05-14T01:45:59.490Z,22.90
2023-05-14T01:50:22.014Z,19.90
2023-05-14T01:54:43.974Z,18.52
2023-05-14T01:59:06.034Z,17.25
2023-05-14T02:03:28.338Z,17.80
2023-05-14T02:07:51.529Z,18.23
2023-05-14T02:12:13.277Z,15.68
2023-05-14T02:16:35.305Z,18.10
2023-05-14T02:20:58.074Z,16.90
2023-05-14T02:25:19.999Z,17.10
2023-05-14T02:29:42.815Z,16.90
2023-05-14T02:34:06.897Z,17.67
2023-05-14T02:38:28.776Z,13.90
2023-05-14T02:42:51.817Z,19.33
2023-05-14T02:47:13.809Z,16.17
2023-05-14T02:51:35.998Z,17.23
2023-05-14T02:55:58.099Z,16.95
2023-05-14T03:00:20.532Z,18.05
2023-05-14T03:04:43.400Z,16.15
2023-05-14T03:09:05.638Z,19.70
2023-05-14T03:13:27.862Z,18.67
2023-05-14T03:17:49.919Z,17.67
2023-05-14T03:22:12.057Z,21.10
2023-05-14T03:26:34.248Z,18.33
2023-05-14T03:30:56.247Z,18.30
2023-05-14T03:35:18.490Z,17.20
2023-05-14T03:39:40.298Z,19.42
2023-05-14T03:44:02.561Z,17.25
2023-05-14T03:48:25.054Z,16.17
2023-05-14T03:52:47.930Z,16.13
2023-05-14T03:57:09.950Z,14.02
2023-05-14T04:01:31.858Z,17.60
2023-05-14T04:05:53.739Z,13.68
2023-05-14T04:10:16.334Z,13.18
2023-05-14T04:14:38.476Z,11.93
2023-05-14T04:19:04.078Z,11.02
2023-05-14T04:23:26.082Z,14.35
2023-05-14T04:27:47.959Z,14.88
2023-05-14T04:32:10.815Z,12.43
2023-05-14T04:36:32.886Z,9.73
2023-05-14T04:40:54.746Z,10.20
2023-05-14T04:45:17.031Z,11.70
2023-05-14T04:49:38.918Z,8.40
2023-05-14T04:54:01.158Z,11.13
2023-05-14T04:58:24.531Z,10.43
2023-05-14T05:02:46.784Z,9.68
2023-05-14T05:07:09.055Z,9.43
2023-05-14T05:11:31.297Z,10.75
2023-05-14T05:15:53.674Z,11.77
2023-05-14T05:20:15.842Z,12.13
2023-05-14T05:24:37.943Z,11.98
2023-05-14T05:29:00.108Z,13.45
2023-05-14T05:33:21.999Z,12.43
2023-05-14T05:37:45.403Z,14.32
2023-05-14T05:42:08.136Z,12.05
2023-05-14T05:46:30.450Z,11.07
2023-05-14T05:50:52.684Z,10.07
2023-05-14T05:55:14.879Z,10.88
2023-05-14T05:59:37.136Z,12.55
2023-05-14T06:03:58.898Z,11.55
2023-05-14T06:08:21.739Z,10.35
2023-05-14T06:12:44.036Z,13.95
2023-05-14T06:17:06.259Z,10.20
2023-05-14T06:21:28.346Z,10.02
2023-05-14T06:25:51.155Z,9.35
2023-05-14T06:30:14.335Z,9.57
2023-05-14T06:34:36.660Z,8.70
2023-05-14T06:38:58.617Z,8.68
2023-05-14T06:43:21.140Z,6.28
2023-05-14T06:47:43.134Z,8.57
2023-05-14T06:52:05.954Z,6.35
2023-05-14T06:56:28.090Z,7.05
2023-05-14T07:00:50.493Z,7.68
2023-05-14T07:05:12.593Z,8.52
2023-05-14T07:09:34.656Z,6.28
2023-05-14T07:13:56.636Z,6.85
2023-05-14T07:18:18.874Z,5.63
2023-05-14T07:22:41.154Z,5.78
2023-05-14T07:27:03.082Z,7.47
2023-05-14T07:31:25.047Z,7.75
2023-05-14T07:35:47.356Z,7.18
2023-05-14T07:40:10.133Z,5.75
2023-05-14T07:44:32.394Z,7.22
2023-05-14T07:48:54.559Z,4.50
2023-05-14T07:53:16.674Z,4.30
2023-05-14T07:57:39.429Z,3.88
2023-05-14T08:02:01.279Z,6.70
2023-05-14T08:06:23.912Z,4.78
2023-05-14T08:10:45.902Z,2.97
2023-05-14T08:15:10.071Z,5.07
2023-05-14T08:19:33.017Z,4.70
2023-05-14T08:23:55.077Z,4.72
2023-05-14T08:28:17.378Z,7.97
2023-05-14T08:32:39.663Z,10.43
2023-05-14T08:37:03.161Z,6.57
2023-05-14T08:41:25.959Z,3.50
2023-05-14T08:45:53.610Z,3.10
2023-05-14T08:50:16.534Z,6.30
2023-05-14T08:54:40.637Z,3.60
2023-05-14T08:59:02.956Z,5.55
2023-05-14T09:03:25.375Z,4.43
2023-05-14T09:07:47.656Z,6.10
2023-05-14T09:12:10.217Z,4.15
2023-05-14T09:16:32.804Z,5.05
2023-05-14T09:20:54.955Z,3.53
2023-05-14T09:25:17.155Z,3.33
2023-05-14T09:29:39.034Z,3.17
2023-05-14T09:34:01.223Z,4.95
2023-05-14T09:38:29.331Z,7.00
2023-05-14T09:42:51.255Z,5.43
2023-05-14T09:47:15.223Z,4.50
2023-05-14T09:51:38.519Z,7.45
2023-05-14T09:56:00.515Z,7.93
2023-05-14T10:00:23.308Z,5.78
2023-05-14T10:04:46.462Z,7.00
2023-05-14T10:09:17.006Z,7.88
2023-05-14T10:13:42.678Z,7.30
2023-05-14T10:18:16.455Z,8.02
2023-05-14T10:22:38.717Z,9.45
2023-05-14T10:27:01.272Z,8.65
2023-05-14T10:31:55.624Z,10.15
2023-05-14T10:36:21.435Z,11.38
2023-05-14T10:40:44.216Z,7.72
2023-05-14T10:45:09.193Z,9.43
2023-05-14T10:49:42.784Z,8.80
2023-05-14T10:54:08.941Z,8.70
2023-05-14T10:58:35.591Z,7.10
2023-05-14T11:02:58.016Z,5.97
2023-05-14T11:07:30.624Z,7.65
2023-05-14T11:11:53.133Z,5.07
2023-05-14T11:16:23.481Z,7.60
2023-05-14T11:20:46.147Z,8.57
2023-05-14T11:25:09.278Z,6.78
2023-05-14T11:29:31.894Z,8.45
2023-05-14T11:33:54.614Z,8.05
2023-05-14T11:38:19.568Z,5.45
2023-05-14T11:42:41.999Z,7.25
2023-05-14T11:47:05.290Z,5.95
2023-05-14T11:51:27.518Z,5.47
2023-05-14T11:55:49.413Z,5.93
2023-05-14T12:00:21.769Z,7.15
2023-05-14T12:04:45.379Z,5.10
2023-05-14T12:09:07.792Z,5.10
2023-05-14T12:13:33.677Z,5.75
2023-05-14T12:17:55.923Z,5.78
2023-05-14T12:22:20.855Z,5.97
2023-05-14T12:26:51.859Z,5.80
2023-05-14T12:31:15.778Z,6.22
2023-05-14T12:35:37.999Z,6.25
2023-05-14T12:39:59.935Z,7.07
2023-05-14T12:44:22.798Z,5.18
2023-05-14T12:48:44.769Z,8.07
2023-05-14T12:53:07.097Z,5.63
2023-05-14T12:57:30.576Z,4.47
2023-05-14T13:01:52.433Z,5.03
2023-05-14T13:06:14.734Z,6.00
2023-05-14T13:10:37.038Z,6.53
2023-05-14T13:14:59.205Z,8.00
2023-05-14T13:19:21.016Z,8.88
2023-05-14T13:23:43.215Z,8.27
2023-05-14T13:28:05.533Z,5.97
2023-05-14T13:32:27.467Z,9.77
2023-05-14T13:36:50.113Z,6.82
2023-05-14T13:41:12.395Z,8.23
2023-05-14T13:45:34.730Z,7.68
2023-05-14T13:49:56.773Z,8.57
2023-05-14T13:54:18.752Z,7.63
2023-05-14T13:58:40.635Z,12.05
2023-05-14T14:03:02.616Z,9.57
2023-05-14T14:07:24.896Z,11.98
2023-05-14T14:11:47.328Z,9.77
2023-05-14T14:16:10.713Z,10.48
2023-05-14T14:20:33.156Z,9.93
2023-05-14T14:24:55.315Z,10.15
2023-05-14T14:29:17.500Z,9.70
2023-05-14T14:33:39.994Z,7.70
2023-05-14T14:38:02.082Z,7.30
2023-05-14T14:42:24.191Z,6.72
2023-05-14T14:46:48.053Z,5.97
2023-05-14T14:51:10.452Z,8.70
2023-05-14T14:55:32.413Z,9.82
2023-05-14T14:59:54.559Z,12.75
2023-05-14T15:04:16.682Z,10.57
2023-05-14T15:08:38.868Z,9.95
2023-05-14T15:13:01.271Z,12.05
2023-05-14T15:17:23.532Z,12.02
2023-05-14T15:21:45.397Z,10.23
2023-05-14T15:26:07.381Z,13.10
2023-05-14T15:30:29.242Z,12.27
2023-05-14T15:34:51.160Z,10.82
2023-05-14T15:39:13.138Z,13.02
2023-05-14T15:43:35.542Z,11.93
2023-05-14T15:47:57.788Z,11.73
2023-05-14T15:52:19.777Z,12.68
2023-05-14T15:56:42.383Z,18.23
2023-05-14T16:01:04.555Z,13.18
2023-05-14T16:05:26.466Z,13.05
2023-05-14T16:09:48.545Z,13.10
2023-05-14T16:14:10.805Z,14.93
2023-05-14T16:18:34.015Z,17.77
2023-05-14T16:22:55.885Z,16.52
2023-05-14T16:27:19.299Z,15.43
2023-05-14T16:31:41.395Z,19.15
2023-05-14T16:36:04.075Z,17.23
2023-05-14T16:40:26.267Z,16.13
2023-05-14T16:44:48.092Z,18.23
2023-05-14T16:49:10.327Z,16.83
2023-05-14T16:53:32.594Z,18.23
2023-05-14T16:57:54.474Z,14.70
2023-05-14T17:02:16.553Z,18.27
2023-05-14T17:06:38.387Z,14.50
2023-05-14T17:11:00.683Z,14.43
2023-05-14T17:15:22.970Z,14.70
2023-05-14T17:19:48.859Z,16.52
2023-05-14T17:24:10.889Z,15.65
2023-05-14T17:28:33.679Z,19.58
2023-05-14T17:32:56.363Z,16.45
2023-05-14T17:37:18.886Z,18.08
2023-05-14T17:41:42.379Z,19.88
2023-05-14T17:46:05.481Z,19.13
2023-05-14T17:50:27.604Z,17.27
2023-05-14T17:54:49.741Z,18.92
2023-05-14T17:59:11.817Z,20.55
2023-05-14T18:03:34.472Z,19.67
2023-05-14T18:07:58.202Z,26.80
2023-05-14T18:12:20.522Z,23.02
2023-05-14T18:16:42.465Z,21.48
2023-05-14T18:21:04.742Z,27.00
2023-05-14T18:25:27.047Z,25.33
2023-05-14T18:29:49.093Z,22.75
2023-05-14T18:34:12.003Z,23.52
2023-05-14T18:38:33.875Z,28.23
2023-05-14T18:42:56.983Z,25.63
2023-05-14T18:47:19.271Z,32.90
2023-05-14T18:51:41.163Z,34.53
2023-05-14T18:56:03.413Z,34.55
2023-05-14T19:00:25.562Z,32.60
2023-05-14T19:04:52.933Z,33.78
2023-05-14T19:09:20.984Z,29.02
2023-05-14T19:13:46.790Z,28.25
2023-05-14T19:18:08.837Z,26.90
2023-05-14T19:22:31.484Z,29.45
2023-05-14T19:26:53.419Z,32.88
2023-05-14T19:31:15.909Z,31.55
2023-05-14T19:35:37.860Z,36.25
2023-05-14T19:39:59.798Z,29.42
2023-05-14T19:44:22.131Z,32.65
2023-05-14T19:48:43.999Z,33.15
2023-05-14T19:53:05.799Z,41.03
2023-05-14T19:57:27.796Z,38.38
2023-05-14T20:01:49.997Z,37.22
2023-05-14T20:06:12.507Z,22.45
2023-05-14T20:10:34.618Z,19.27
2023-05-14T20:14:56.757Z,24.50
2023-05-14T20:19:21.429Z,20.67
2023-05-14T20:23:43.800Z,21.67
2023-05-14T20:28:06.124Z,10.02
2023-05-14T20:32:28.391Z,7.95
2023-05-14T20:36:52.429Z,7.75
2023-05-14T20:41:15.204Z,9.20
2023-05-14T20:45:37.278Z,10.32
2023-05-14T20:49:59.782Z,8.50
2023-05-14T20:54:21.760Z,9.50
2023-05-14T20:58:43.702Z,8.82
2023-05-14T21:03:05.837Z,8.18
2023-05-14T21:07:28.920Z,8.68
2023-05-14T21:11:52.420Z,9.20
2023-05-14T21:16:14.571Z,7.60
2023-05-14T21:20:36.324Z,9.38
2023-05-14T21:24:58.438Z,10.60
2023-05-14T21:29:20.599Z,8.60
2023-05-14T21:33:42.563Z,10.07
2023-05-14T21:38:04.482Z,8.02
2023-05-14T21:42:26.366Z,11.52
2023-05-14T21:46:48.558Z,8.02
2023-05-14T21:51:10.666Z,11.45
2023-05-14T21:55:32.731Z,12.35
2023-05-14T21:59:54.636Z,10.98
2023-05-14T22:04:17.142Z,14.82
2023-05-14T22:08:39.238Z,11.90
2023-05-14T22:13:01.218Z,13.52
2023-05-14T22:17:23.413Z,11.30
2023-05-14T22:21:45.717Z,14.15
2023-05-14T22:26:07.931Z,15.77
2023-05-14T22:30:29.997Z,13.27
2023-05-14T22:34:52.340Z,18.50
2023-05-14T22:39:14.325Z,11.65
2023-05-14T22:43:36.720Z,12.43
2023-05-14T22:47:59.379Z,11.43
2023-05-14T22:52:21.581Z,14.20
2023-05-14T22:56:43.656Z,11.77
2023-05-14T23:01:05.817Z,11.60
2023-05-14T23:05:27.815Z,14.20
2023-05-14T23:09:49.977Z,11.52
2023-05-14T23:14:12.156Z,16.58
2023-05-14T23:18:34.215Z,12.32
2023-05-14T23:22:56.394Z,13.50
2023-05-14T23:27:18.658Z,12.70
2023-05-14T23:31:41.416Z,16.15
2023-05-14T23:36:03.921Z,14.40
2023-05-14T23:40:26.094Z,11.52
2023-05-14T23:44:48.236Z,11.63
2023-05-14T23:49:10.435Z,12.65
2023-05-14T23:53:32.614Z,12.52
2023-05-14T23:57:54.921Z,19.25
